Russell, PA (16345)

3:40 AM EDT on September 01, 2015 (GMT -0400)
Parts Plus/Dan Backus Memorial Weather Station | | Change Station
CLOSE
Current Station
Personal Weather Station
Location: Jamestown, NY
Elevation: 1250 ft
Nearby Weather Stations

Elev 1250 ft 42.11 °N, 79.22 °W | Updated 35 seconds ago

Fog
Fog
60.8 °F
Feels Like 60.8 °F
N
0.0
Wind Variable Wind from North
Gusts 0.0 mph

Today
High -- | Low -- °F
--% Chance of Precip.
Yesterday
High -- | Low -- °F
Precip. -- in
6:41 AM 7:50 PM
Waning Gibbous, 90% visible
Pressure 30.11 in
Visibility 0.2 miles
Clouds Overcast 100 ft
Dew Point 59 °F
Humidity 95%
Rainfall 0.00 in
Snow Depth Not available.
UV 0 out of 12
Pollen 10.80 out of 12
Air Quality Not available.
Flu Activity Not available.
METAR KJHW 010735Z AUTO 24005KT M1/4SM OVC001 16/15 A3011 RMK AO1
Pressure 30.11 in
Visibility 0.2 miles
Clouds Overcast 100 ft
Dew Point 59 °F
Humidity 95%
Rainfall 0.00 in
Snow Depth Not available.
UV 0 out of 12
Pollen 10.80 out of 12
Air Quality Not available.
Flu Activity Not available.
METAR KJHW 010735Z AUTO 24005KT M1/4SM OVC001 16/15 A3011 RMK AO1

10-Day Weather Forecast

×

Almanac

Astronomy

Sep. 01, 2015 Rise Set
Actual Time
Civil Twilight
Nautical Twilight
Astronomical Twilight
Moon
Length of Visible Light
Length of Day
Tomorrow will be .
, % of the Moon is Illuminated

Today's Extremes

State Highs State Lows

Community

WunderPhotos

Upload Photos

1,851,488 photos uploaded!

WunderBlogs® & News

Nearby

Air Quality

  Air Quality AQ Index Pollutant
Not available.

Snow Depth

Station Depth Elevation

Earthquake Activity

City Distance Mag. Time & Date
Minimum magnitude displayed is 2.5.

Coastal Water Temperatures

Place Temperature

Stations

Nearby Weather Stations

Station Location Temp. Windchill Dew Point Humidity Wind Precip. Elev Updated Type